sensor_id;sensor_type;location;lat;lon;timestamp;P1;durP1;ratioP1;P2;durP2;ratioP2
39454;SDS011;25155;41.890;23.446;2024-01-30T00:00:49;3.60;;;2.30;;
39454;SDS011;25155;41.890;23.446;2024-01-30T00:03:16;4.75;;;2.50;;
39454;SDS011;25155;41.890;23.446;2024-01-30T00:05:43;4.30;;;2.30;;
39454;SDS011;25155;41.890;23.446;2024-01-30T00:08:10;3.58;;;2.25;;
39454;SDS011;25155;41.890;23.446;2024-01-30T00:10:39;4.60;;;2.78;;
39454;SDS011;25155;41.890;23.446;2024-01-30T00:13:06;5.80;;;2.72;;
39454;SDS011;25155;41.890;23.446;2024-01-30T00:15:34;4.70;;;2.70;;
39454;SDS011;25155;41.890;23.446;2024-01-30T00:18:01;5.28;;;2.67;;
39454;SDS011;25155;41.890;23.446;2024-01-30T00:20:28;3.67;;;2.38;;
39454;SDS011;25155;41.890;23.446;2024-01-30T00:22:55;4.65;;;2.90;;
39454;SDS011;25155;41.890;23.446;2024-01-30T00:25:23;3.40;;;2.20;;
39454;SDS011;25155;41.890;23.446;2024-01-30T00:27:51;5.95;;;3.17;;
39454;SDS011;25155;41.890;23.446;2024-01-30T00:30:19;5.95;;;3.42;;
39454;SDS011;25155;41.890;23.446;2024-01-30T00:32:47;5.95;;;3.25;;
39454;SDS011;25155;41.890;23.446;2024-01-30T00:35:14;4.90;;;2.78;;
39454;SDS011;25155;41.890;23.446;2024-01-30T00:37:41;5.03;;;2.95;;
39454;SDS011;25155;41.890;23.446;2024-01-30T00:40:09;3.47;;;2.38;;
39454;SDS011;25155;41.890;23.446;2024-01-30T00:42:40;3.20;;;2.10;;
39454;SDS011;25155;41.890;23.446;2024-01-30T00:45:13;5.20;;;2.60;;
39454;SDS011;25155;41.890;23.446;2024-01-30T00:47:40;3.30;;;1.90;;
39454;SDS011;25155;41.890;23.446;2024-01-30T00:50:08;3.25;;;2.00;;
39454;SDS011;25155;41.890;23.446;2024-01-30T00:52:35;4.05;;;2.40;;
39454;SDS011;25155;41.890;23.446;2024-01-30T00:55:05;4.68;;;2.42;;
39454;SDS011;25155;41.890;23.446;2024-01-30T00:57:32;4.35;;;2.42;;
39454;SDS011;25155;41.890;23.446;2024-01-30T00:59:59;5.60;;;2.92;;
39454;SDS011;25155;41.890;23.446;2024-01-30T01:02:28;8.00;;;4.43;;
39454;SDS011;25155;41.890;23.446;2024-01-30T01:04:55;10.88;;;5.53;;
39454;SDS011;25155;41.890;23.446;2024-01-30T01:07:22;7.93;;;4.43;;
39454;SDS011;25155;41.890;23.446;2024-01-30T01:09:49;5.93;;;3.30;;
39454;SDS011;25155;41.890;23.446;2024-01-30T01:12:16;4.32;;;2.60;;
39454;SDS011;25155;41.890;23.446;2024-01-30T01:14:44;5.50;;;3.28;;
39454;SDS011;25155;41.890;23.446;2024-01-30T01:17:11;5.05;;;2.83;;
39454;SDS011;25155;41.890;23.446;2024-01-30T01:19:40;4.63;;;2.80;;
39454;SDS011;25155;41.890;23.446;2024-01-30T01:22:07;5.70;;;3.25;;
39454;SDS011;25155;41.890;23.446;2024-01-30T01:24:35;4.47;;;2.50;;
39454;SDS011;25155;41.890;23.446;2024-01-30T01:27:03;4.45;;;2.80;;
39454;SDS011;25155;41.890;23.446;2024-01-30T01:29:31;4.88;;;2.42;;
39454;SDS011;25155;41.890;23.446;2024-01-30T01:31:58;5.18;;;2.72;;
39454;SDS011;25155;41.890;23.446;2024-01-30T01:34:25;4.28;;;2.30;;
39454;SDS011;25155;41.890;23.446;2024-01-30T01:36:54;3.70;;;2.35;;
39454;SDS011;25155;41.890;23.446;2024-01-30T01:39:22;4.22;;;2.42;;
39454;SDS011;25155;41.890;23.446;2024-01-30T01:41:49;4.07;;;2.38;;
39454;SDS011;25155;41.890;23.446;2024-01-30T01:44:17;4.82;;;2.75;;
39454;SDS011;25155;41.890;23.446;2024-01-30T01:46:45;3.92;;;2.53;;
39454;SDS011;25155;41.890;23.446;2024-01-30T01:49:12;4.40;;;2.67;;
39454;SDS011;25155;41.890;23.446;2024-01-30T01:51:41;4.22;;;2.40;;
39454;SDS011;25155;41.890;23.446;2024-01-30T01:54:11;4.93;;;3.13;;
39454;SDS011;25155;41.890;23.446;2024-01-30T01:56:39;4.88;;;2.65;;
39454;SDS011;25155;41.890;23.446;2024-01-30T01:59:08;4.05;;;2.28;;
39454;SDS011;25155;41.890;23.446;2024-01-30T02:01:35;4.03;;;2.53;;
39454;SDS011;25155;41.890;23.446;2024-01-30T02:04:04;4.03;;;2.50;;
39454;SDS011;25155;41.890;23.446;2024-01-30T02:06:31;4.53;;;2.58;;
39454;SDS011;25155;41.890;23.446;2024-01-30T02:08:59;4.65;;;2.70;;
39454;SDS011;25155;41.890;23.446;2024-01-30T02:11:27;5.40;;;3.00;;
39454;SDS011;25155;41.890;23.446;2024-01-30T02:13:55;5.88;;;3.25;;
39454;SDS011;25155;41.890;23.446;2024-01-30T02:16:22;5.03;;;2.88;;
39454;SDS011;25155;41.890;23.446;2024-01-30T02:18:49;5.47;;;2.90;;
39454;SDS011;25155;41.890;23.446;2024-01-30T02:21:18;5.65;;;3.22;;
39454;SDS011;25155;41.890;23.446;2024-01-30T02:23:46;6.25;;;3.58;;
39454;SDS011;25155;41.890;23.446;2024-01-30T02:26:15;5.43;;;3.17;;
39454;SDS011;25155;41.890;23.446;2024-01-30T02:28:42;5.10;;;3.00;;
39454;SDS011;25155;41.890;23.446;2024-01-30T02:31:09;5.05;;;2.90;;
39454;SDS011;25155;41.890;23.446;2024-01-30T02:33:36;4.70;;;2.80;;
39454;SDS011;25155;41.890;23.446;2024-01-30T02:36:04;6.50;;;3.17;;
39454;SDS011;25155;41.890;23.446;2024-01-30T02:38:33;5.03;;;2.92;;
39454;SDS011;25155;41.890;23.446;2024-01-30T02:41:00;5.22;;;3.13;;
39454;SDS011;25155;41.890;23.446;2024-01-30T02:43:27;5.75;;;2.90;;
39454;SDS011;25155;41.890;23.446;2024-01-30T02:45:54;4.78;;;2.75;;
39454;SDS011;25155;41.890;23.446;2024-01-30T02:48:21;5.28;;;2.67;;
39454;SDS011;25155;41.890;23.446;2024-01-30T02:50:49;4.78;;;2.67;;
39454;SDS011;25155;41.890;23.446;2024-01-30T02:53:16;3.90;;;2.42;;
39454;SDS011;25155;41.890;23.446;2024-01-30T02:55:44;4.18;;;2.40;;
39454;SDS011;25155;41.890;23.446;2024-01-30T02:58:11;4.35;;;2.15;;
39454;SDS011;25155;41.890;23.446;2024-01-30T03:00:39;4.03;;;2.38;;
39454;SDS011;25155;41.890;23.446;2024-01-30T03:03:06;4.47;;;2.70;;
39454;SDS011;25155;41.890;23.446;2024-01-30T03:05:33;6.43;;;4.00;;
39454;SDS011;25155;41.890;23.446;2024-01-30T03:08:00;5.88;;;3.10;;
39454;SDS011;25155;41.890;23.446;2024-01-30T03:10:27;6.45;;;3.47;;
39454;SDS011;25155;41.890;23.446;2024-01-30T03:12:56;4.47;;;2.90;;
39454;SDS011;25155;41.890;23.446;2024-01-30T03:15:23;5.78;;;3.53;;
39454;SDS011;25155;41.890;23.446;2024-01-30T03:17:50;7.03;;;3.42;;
39454;SDS011;25155;41.890;23.446;2024-01-30T03:20:17;4.97;;;2.80;;
39454;SDS011;25155;41.890;23.446;2024-01-30T03:22:44;4.60;;;2.60;;
39454;SDS011;25155;41.890;23.446;2024-01-30T03:25:12;4.90;;;3.03;;
39454;SDS011;25155;41.890;23.446;2024-01-30T03:27:39;5.05;;;2.80;;
39454;SDS011;25155;41.890;23.446;2024-01-30T03:30:08;4.95;;;2.70;;
39454;SDS011;25155;41.890;23.446;2024-01-30T03:32:36;3.92;;;2.53;;
39454;SDS011;25155;41.890;23.446;2024-01-30T03:35:03;5.32;;;3.05;;
39454;SDS011;25155;41.890;23.446;2024-01-30T03:37:31;4.50;;;2.63;;
39454;SDS011;25155;41.890;23.446;2024-01-30T03:39:58;4.72;;;2.83;;
39454;SDS011;25155;41.890;23.446;2024-01-30T03:42:26;5.00;;;2.97;;
39454;SDS011;25155;41.890;23.446;2024-01-30T03:44:53;4.63;;;2.67;;
39454;SDS011;25155;41.890;23.446;2024-01-30T03:47:22;5.32;;;2.60;;
39454;SDS011;25155;41.890;23.446;2024-01-30T03:49:49;4.10;;;2.63;;
39454;SDS011;25155;41.890;23.446;2024-01-30T03:52:16;4.88;;;2.75;;
39454;SDS011;25155;41.890;23.446;2024-01-30T03:54:44;4.40;;;2.47;;
39454;SDS011;25155;41.890;23.446;2024-01-30T03:57:11;3.75;;;2.30;;
39454;SDS011;25155;41.890;23.446;2024-01-30T03:59:41;3.47;;;2.20;;
39454;SDS011;25155;41.890;23.446;2024-01-30T04:02:09;3.63;;;2.15;;
39454;SDS011;25155;41.890;23.446;2024-01-30T04:04:38;4.05;;;2.10;;
39454;SDS011;25155;41.890;23.446;2024-01-30T04:07:05;3.03;;;2.10;;
39454;SDS011;25155;41.890;23.446;2024-01-30T04:09:33;4.03;;;2.35;;
39454;SDS011;25155;41.890;23.446;2024-01-30T04:12:00;3.97;;;2.30;;
39454;SDS011;25155;41.890;23.446;2024-01-30T04:14:28;4.00;;;2.28;;
39454;SDS011;25155;41.890;23.446;2024-01-30T04:16:56;4.20;;;2.35;;
39454;SDS011;25155;41.890;23.446;2024-01-30T04:19:23;4.07;;;2.50;;
39454;SDS011;25155;41.890;23.446;2024-01-30T04:21:52;4.65;;;2.70;;
39454;SDS011;25155;41.890;23.446;2024-01-30T04:24:19;4.55;;;2.60;;
39454;SDS011;25155;41.890;23.446;2024-01-30T04:26:46;3.97;;;2.55;;
39454;SDS011;25155;41.890;23.446;2024-01-30T04:29:14;4.05;;;2.55;;
39454;SDS011;25155;41.890;23.446;2024-01-30T04:31:41;4.65;;;2.63;;
39454;SDS011;25155;41.890;23.446;2024-01-30T04:34:08;5.13;;;2.95;;
39454;SDS011;25155;41.890;23.446;2024-01-30T04:36:35;4.20;;;2.70;;
39454;SDS011;25155;41.890;23.446;2024-01-30T04:39:04;4.93;;;2.80;;
39454;SDS011;25155;41.890;23.446;2024-01-30T04:41:31;4.82;;;2.80;;
39454;SDS011;25155;41.890;23.446;2024-01-30T04:43:59;4.72;;;2.75;;
39454;SDS011;25155;41.890;23.446;2024-01-30T04:46:26;3.55;;;2.30;;
39454;SDS011;25155;41.890;23.446;2024-01-30T04:48:53;4.65;;;2.50;;
39454;SDS011;25155;41.890;23.446;2024-01-30T04:51:21;3.85;;;2.25;;
39454;SDS011;25155;41.890;23.446;2024-01-30T04:53:48;4.97;;;2.58;;
39454;SDS011;25155;41.890;23.446;2024-01-30T04:56:17;4.55;;;2.58;;
39454;SDS011;25155;41.890;23.446;2024-01-30T04:58:44;3.63;;;2.28;;
39454;SDS011;25155;41.890;23.446;2024-01-30T05:01:14;4.13;;;2.25;;
39454;SDS011;25155;41.890;23.446;2024-01-30T05:03:42;6.15;;;3.33;;
39454;SDS011;25155;41.890;23.446;2024-01-30T05:06:10;7.43;;;4.57;;
39454;SDS011;25155;41.890;23.446;2024-01-30T05:08:37;7.63;;;4.15;;
39454;SDS011;25155;41.890;23.446;2024-01-30T05:11:04;6.25;;;3.30;;
39454;SDS011;25155;41.890;23.446;2024-01-30T05:13:34;5.43;;;2.97;;
39454;SDS011;25155;41.890;23.446;2024-01-30T05:16:01;5.45;;;2.97;;
39454;SDS011;25155;41.890;23.446;2024-01-30T05:18:30;4.85;;;3.03;;
39454;SDS011;25155;41.890;23.446;2024-01-30T05:20:57;5.95;;;3.03;;
39454;SDS011;25155;41.890;23.446;2024-01-30T05:23:25;4.00;;;2.40;;
39454;SDS011;25155;41.890;23.446;2024-01-30T05:25:52;3.47;;;2.20;;
39454;SDS011;25155;41.890;23.446;2024-01-30T05:28:20;4.68;;;2.58;;
39454;SDS011;25155;41.890;23.446;2024-01-30T05:30:48;4.40;;;2.63;;
39454;SDS011;25155;41.890;23.446;2024-01-30T05:33:17;4.53;;;2.70;;
39454;SDS011;25155;41.890;23.446;2024-01-30T05:35:44;4.05;;;2.70;;
39454;SDS011;25155;41.890;23.446;2024-01-30T05:38:11;5.03;;;2.67;;
39454;SDS011;25155;41.890;23.446;2024-01-30T05:40:39;5.07;;;3.10;;
39454;SDS011;25155;41.890;23.446;2024-01-30T05:43:06;10.13;;;6.25;;
39454;SDS011;25155;41.890;23.446;2024-01-30T05:45:34;15.13;;;6.80;;
39454;SDS011;25155;41.890;23.446;2024-01-30T05:48:03;9.60;;;5.97;;
39454;SDS011;25155;41.890;23.446;2024-01-30T05:50:31;9.20;;;5.93;;
39454;SDS011;25155;41.890;23.446;2024-01-30T05:52:58;11.05;;;6.90;;
39454;SDS011;25155;41.890;23.446;2024-01-30T05:55:26;10.30;;;6.63;;
39454;SDS011;25155;41.890;23.446;2024-01-30T05:57:53;13.65;;;8.15;;
39454;SDS011;25155;41.890;23.446;2024-01-30T06:00:21;26.65;;;14.98;;
39454;SDS011;25155;41.890;23.446;2024-01-30T06:02:50;18.48;;;12.00;;
39454;SDS011;25155;41.890;23.446;2024-01-30T06:05:18;21.95;;;13.38;;
39454;SDS011;25155;41.890;23.446;2024-01-30T06:07:45;22.83;;;13.70;;
39454;SDS011;25155;41.890;23.446;2024-01-30T06:10:13;18.48;;;11.15;;
39454;SDS011;25155;41.890;23.446;2024-01-30T06:12:40;17.77;;;10.57;;
39454;SDS011;25155;41.890;23.446;2024-01-30T06:15:07;16.08;;;9.50;;
39454;SDS011;25155;41.890;23.446;2024-01-30T06:17:35;32.17;;;17.95;;
39454;SDS011;25155;41.890;23.446;2024-01-30T06:20:02;30.90;;;17.65;;
39454;SDS011;25155;41.890;23.446;2024-01-30T06:22:31;40.10;;;23.85;;
39454;SDS011;25155;41.890;23.446;2024-01-30T06:24:59;40.00;;;24.02;;
39454;SDS011;25155;41.890;23.446;2024-01-30T06:27:27;35.92;;;22.17;;
39454;SDS011;25155;41.890;23.446;2024-01-30T06:29:54;29.90;;;17.75;;
39454;SDS011;25155;41.890;23.446;2024-01-30T06:32:21;26.45;;;14.68;;
39454;SDS011;25155;41.890;23.446;2024-01-30T06:34:48;19.20;;;12.18;;
39454;SDS011;25155;41.890;23.446;2024-01-30T06:37:15;12.77;;;8.05;;
39454;SDS011;25155;41.890;23.446;2024-01-30T06:39:44;12.07;;;8.07;;
39454;SDS011;25155;41.890;23.446;2024-01-30T06:42:11;8.77;;;5.60;;
39454;SDS011;25155;41.890;23.446;2024-01-30T06:44:39;7.78;;;4.65;;
39454;SDS011;25155;41.890;23.446;2024-01-30T06:47:06;7.45;;;4.70;;
39454;SDS011;25155;41.890;23.446;2024-01-30T06:49:33;7.15;;;4.30;;
39454;SDS011;25155;41.890;23.446;2024-01-30T06:52:04;13.35;;;7.13;;
39454;SDS011;25155;41.890;23.446;2024-01-30T06:54:31;41.65;;;22.25;;
39454;SDS011;25155;41.890;23.446;2024-01-30T06:57:00;89.82;;;48.63;;
39454;SDS011;25155;41.890;23.446;2024-01-30T06:59:27;120.90;;;66.65;;
39454;SDS011;25155;41.890;23.446;2024-01-30T07:01:56;116.15;;;64.00;;
39454;SDS011;25155;41.890;23.446;2024-01-30T07:04:23;126.75;;;73.60;;
39454;SDS011;25155;41.890;23.446;2024-01-30T07:06:50;109.15;;;62.38;;
39454;SDS011;25155;41.890;23.446;2024-01-30T07:09:18;127.22;;;74.93;;
39454;SDS011;25155;41.890;23.446;2024-01-30T07:11:45;106.07;;;61.85;;
39454;SDS011;25155;41.890;23.446;2024-01-30T07:14:14;121.80;;;73.35;;
39454;SDS011;25155;41.890;23.446;2024-01-30T07:16:41;144.25;;;86.88;;
39454;SDS011;25155;41.890;23.446;2024-01-30T07:19:09;143.80;;;86.32;;
39454;SDS011;25155;41.890;23.446;2024-01-30T07:21:36;137.55;;;77.60;;
39454;SDS011;25155;41.890;23.446;2024-01-30T07:24:05;108.30;;;63.17;;
39454;SDS011;25155;41.890;23.446;2024-01-30T07:26:34;85.50;;;51.65;;
39454;SDS011;25155;41.890;23.446;2024-01-30T07:29:02;87.93;;;51.10;;
39454;SDS011;25155;41.890;23.446;2024-01-30T07:31:31;84.28;;;49.28;;
39454;SDS011;25155;41.890;23.446;2024-01-30T07:33:58;82.70;;;49.03;;
39454;SDS011;25155;41.890;23.446;2024-01-30T07:36:25;80.25;;;48.92;;
39454;SDS011;25155;41.890;23.446;2024-01-30T07:38:52;68.63;;;41.45;;
39454;SDS011;25155;41.890;23.446;2024-01-30T07:41:20;55.47;;;33.47;;
39454;SDS011;25155;41.890;23.446;2024-01-30T07:43:48;55.72;;;33.30;;
39454;SDS011;25155;41.890;23.446;2024-01-30T07:46:15;42.67;;;25.88;;
39454;SDS011;25155;41.890;23.446;2024-01-30T07:48:43;48.15;;;27.67;;
39454;SDS011;25155;41.890;23.446;2024-01-30T07:51:11;43.72;;;23.92;;
39454;SDS011;25155;41.890;23.446;2024-01-30T07:53:38;39.75;;;22.77;;
39454;SDS011;25155;41.890;23.446;2024-01-30T07:56:07;42.38;;;24.70;;
39454;SDS011;25155;41.890;23.446;2024-01-30T07:58:34;43.90;;;24.40;;
39454;SDS011;25155;41.890;23.446;2024-01-30T08:01:02;38.35;;;22.52;;
39454;SDS011;25155;41.890;23.446;2024-01-30T08:03:29;28.70;;;17.17;;
39454;SDS011;25155;41.890;23.446;2024-01-30T08:05:57;37.00;;;22.90;;
39454;SDS011;25155;41.890;23.446;2024-01-30T08:08:25;37.92;;;23.50;;
39454;SDS011;25155;41.890;23.446;2024-01-30T08:10:52;41.55;;;25.48;;
39454;SDS011;25155;41.890;23.446;2024-01-30T08:13:19;40.38;;;24.73;;
39454;SDS011;25155;41.890;23.446;2024-01-30T08:15:46;23.67;;;14.90;;
39454;SDS011;25155;41.890;23.446;2024-01-30T08:18:13;43.80;;;24.33;;
39454;SDS011;25155;41.890;23.446;2024-01-30T08:20:41;38.22;;;21.60;;
39454;SDS011;25155;41.890;23.446;2024-01-30T08:23:09;25.92;;;15.23;;
39454;SDS011;25155;41.890;23.446;2024-01-30T08:25:37;20.95;;;12.60;;
39454;SDS011;25155;41.890;23.446;2024-01-30T08:28:04;15.13;;;7.85;;
39454;SDS011;25155;41.890;23.446;2024-01-30T08:30:32;18.23;;;10.65;;
39454;SDS011;25155;41.890;23.446;2024-01-30T08:33:00;17.63;;;10.52;;
39454;SDS011;25155;41.890;23.446;2024-01-30T08:35:28;18.75;;;11.27;;
39454;SDS011;25155;41.890;23.446;2024-01-30T08:37:58;18.70;;;10.88;;
39454;SDS011;25155;41.890;23.446;2024-01-30T08:40:27;14.40;;;8.27;;
39454;SDS011;25155;41.890;23.446;2024-01-30T08:42:55;13.73;;;8.00;;
39454;SDS011;25155;41.890;23.446;2024-01-30T08:45:22;10.80;;;7.07;;
39454;SDS011;25155;41.890;23.446;2024-01-30T08:47:49;10.95;;;5.68;;
39454;SDS011;25155;41.890;23.446;2024-01-30T08:50:16;13.10;;;6.97;;
39454;SDS011;25155;41.890;23.446;2024-01-30T08:52:44;10.60;;;6.00;;
39454;SDS011;25155;41.890;23.446;2024-01-30T08:55:11;7.47;;;4.75;;
39454;SDS011;25155;41.890;23.446;2024-01-30T08:57:40;9.90;;;5.10;;
39454;SDS011;25155;41.890;23.446;2024-01-30T09:00:07;6.70;;;3.95;;
39454;SDS011;25155;41.890;23.446;2024-01-30T09:02:36;8.77;;;5.10;;
39454;SDS011;25155;41.890;23.446;2024-01-30T09:05:03;7.45;;;4.32;;
39454;SDS011;25155;41.890;23.446;2024-01-30T09:07:30;6.90;;;4.20;;
39454;SDS011;25155;41.890;23.446;2024-01-30T09:09:58;5.43;;;3.47;;
39454;SDS011;25155;41.890;23.446;2024-01-30T09:12:25;6.53;;;4.10;;
39454;SDS011;25155;41.890;23.446;2024-01-30T09:14:54;6.20;;;4.03;;
39454;SDS011;25155;41.890;23.446;2024-01-30T09:17:21;11.27;;;4.93;;
39454;SDS011;25155;41.890;23.446;2024-01-30T09:19:48;8.75;;;4.53;;
39454;SDS011;25155;41.890;23.446;2024-01-30T09:22:15;7.13;;;4.20;;
39454;SDS011;25155;41.890;23.446;2024-01-30T09:24:43;7.38;;;4.25;;
39454;SDS011;25155;41.890;23.446;2024-01-30T09:27:10;7.97;;;4.32;;
39454;SDS011;25155;41.890;23.446;2024-01-30T09:29:37;6.72;;;4.20;;
39454;SDS011;25155;41.890;23.446;2024-01-30T09:32:07;7.43;;;4.70;;
39454;SDS011;25155;41.890;23.446;2024-01-30T09:34:35;7.85;;;5.03;;
39454;SDS011;25155;41.890;23.446;2024-01-30T09:37:02;7.53;;;4.10;;
39454;SDS011;25155;41.890;23.446;2024-01-30T09:39:30;7.53;;;4.78;;
39454;SDS011;25155;41.890;23.446;2024-01-30T09:42:00;8.07;;;4.32;;
39454;SDS011;25155;41.890;23.446;2024-01-30T09:44:31;9.88;;;5.97;;
39454;SDS011;25155;41.890;23.446;2024-01-30T09:47:01;12.50;;;6.65;;
39454;SDS011;25155;41.890;23.446;2024-01-30T09:49:33;10.43;;;6.30;;
39454;SDS011;25155;41.890;23.446;2024-01-30T09:52:01;9.75;;;5.32;;
39454;SDS011;25155;41.890;23.446;2024-01-30T09:54:29;10.40;;;5.43;;
39454;SDS011;25155;41.890;23.446;2024-01-30T09:56:57;9.88;;;6.03;;
39454;SDS011;25155;41.890;23.446;2024-01-30T09:59:24;8.98;;;5.53;;
39454;SDS011;25155;41.890;23.446;2024-01-30T10:01:52;8.85;;;5.35;;
39454;SDS011;25155;41.890;23.446;2024-01-30T10:04:19;8.75;;;5.82;;
39454;SDS011;25155;41.890;23.446;2024-01-30T10:06:47;8.15;;;5.45;;
39454;SDS011;25155;41.890;23.446;2024-01-30T10:09:15;7.25;;;4.53;;
39454;SDS011;25155;41.890;23.446;2024-01-30T10:11:42;6.25;;;3.92;;
39454;SDS011;25155;41.890;23.446;2024-01-30T10:14:09;8.32;;;5.15;;
39454;SDS011;25155;41.890;23.446;2024-01-30T10:16:36;6.45;;;4.07;;
39454;SDS011;25155;41.890;23.446;2024-01-30T10:19:03;7.40;;;4.00;;
39454;SDS011;25155;41.890;23.446;2024-01-30T10:21:30;10.65;;;5.85;;
39454;SDS011;25155;41.890;23.446;2024-01-30T10:23:59;8.75;;;5.30;;
39454;SDS011;25155;41.890;23.446;2024-01-30T10:26:26;9.75;;;4.65;;
39454;SDS011;25155;41.890;23.446;2024-01-30T10:28:54;7.10;;;4.38;;
39454;SDS011;25155;41.890;23.446;2024-01-30T10:31:21;9.23;;;5.20;;
39454;SDS011;25155;41.890;23.446;2024-01-30T10:33:49;8.27;;;5.07;;
39454;SDS011;25155;41.890;23.446;2024-01-30T10:36:16;6.25;;;3.67;;
39454;SDS011;25155;41.890;23.446;2024-01-30T10:38:45;3.88;;;2.38;;
39454;SDS011;25155;41.890;23.446;2024-01-30T10:41:18;6.05;;;3.08;;
39454;SDS011;25155;41.890;23.446;2024-01-30T10:43:53;4.68;;;2.83;;
39454;SDS011;25155;41.890;23.446;2024-01-30T10:46:28;4.75;;;2.92;;
39454;SDS011;25155;41.890;23.446;2024-01-30T10:48:59;5.50;;;3.00;;
39454;SDS011;25155;41.890;23.446;2024-01-30T10:51:27;5.28;;;3.20;;
39454;SDS011;25155;41.890;23.446;2024-01-30T10:53:55;4.50;;;2.70;;
39454;SDS011;25155;41.890;23.446;2024-01-30T10:56:24;6.47;;;4.00;;
39454;SDS011;25155;41.890;23.446;2024-01-30T10:58:52;5.82;;;3.50;;
39454;SDS011;25155;41.890;23.446;2024-01-30T11:01:21;4.10;;;2.65;;
39454;SDS011;25155;41.890;23.446;2024-01-30T11:03:50;3.20;;;2.20;;
39454;SDS011;25155;41.890;23.446;2024-01-30T11:06:18;4.13;;;2.67;;
39454;SDS011;25155;41.890;23.446;2024-01-30T11:08:59;4.55;;;3.00;;
39454;SDS011;25155;41.890;23.446;2024-01-30T11:11:29;4.80;;;2.65;;
39454;SDS011;25155;41.890;23.446;2024-01-30T11:14:00;4.25;;;2.65;;
39454;SDS011;25155;41.890;23.446;2024-01-30T11:16:31;4.72;;;2.95;;
39454;SDS011;25155;41.890;23.446;2024-01-30T11:19:00;5.30;;;3.20;;
39454;SDS011;25155;41.890;23.446;2024-01-30T11:21:27;5.82;;;3.40;;
39454;SDS011;25155;41.890;23.446;2024-01-30T11:23:54;4.32;;;2.53;;
39454;SDS011;25155;41.890;23.446;2024-01-30T11:26:24;4.57;;;2.50;;
39454;SDS011;25155;41.890;23.446;2024-01-30T11:28:56;4.03;;;2.58;;
39454;SDS011;25155;41.890;23.446;2024-01-30T11:31:23;4.53;;;2.67;;
39454;SDS011;25155;41.890;23.446;2024-01-30T11:33:52;4.05;;;2.50;;
39454;SDS011;25155;41.890;23.446;2024-01-30T11:36:21;4.70;;;2.80;;
39454;SDS011;25155;41.890;23.446;2024-01-30T11:38:52;4.70;;;2.63;;
39454;SDS011;25155;41.890;23.446;2024-01-30T11:41:19;4.32;;;2.53;;
39454;SDS011;25155;41.890;23.446;2024-01-30T11:43:51;3.90;;;2.30;;
39454;SDS011;25155;41.890;23.446;2024-01-30T11:46:20;3.38;;;2.10;;
39454;SDS011;25155;41.890;23.446;2024-01-30T11:48:47;3.78;;;2.40;;
39454;SDS011;25155;41.890;23.446;2024-01-30T11:51:14;6.13;;;3.78;;
39454;SDS011;25155;41.890;23.446;2024-01-30T11:53:44;7.28;;;4.10;;
39454;SDS011;25155;41.890;23.446;2024-01-30T11:56:16;6.55;;;3.78;;
39454;SDS011;25155;41.890;23.446;2024-01-30T11:58:43;7.97;;;4.72;;
39454;SDS011;25155;41.890;23.446;2024-01-30T12:01:10;6.05;;;3.47;;
39454;SDS011;25155;41.890;23.446;2024-01-30T12:03:39;4.95;;;2.90;;
39454;SDS011;25155;41.890;23.446;2024-01-30T12:06:06;4.05;;;2.50;;
39454;SDS011;25155;41.890;23.446;2024-01-30T12:08:34;3.78;;;2.38;;
39454;SDS011;25155;41.890;23.446;2024-01-30T12:11:01;3.28;;;2.10;;
39454;SDS011;25155;41.890;23.446;2024-01-30T12:13:30;4.07;;;2.30;;
39454;SDS011;25155;41.890;23.446;2024-01-30T12:15:58;4.60;;;2.60;;
39454;SDS011;25155;41.890;23.446;2024-01-30T12:18:26;4.72;;;2.70;;
39454;SDS011;25155;41.890;23.446;2024-01-30T12:20:58;4.28;;;2.47;;
39454;SDS011;25155;41.890;23.446;2024-01-30T12:23:26;4.28;;;2.35;;
39454;SDS011;25155;41.890;23.446;2024-01-30T12:25:54;4.13;;;2.35;;
39454;SDS011;25155;41.890;23.446;2024-01-30T12:28:21;4.30;;;2.50;;
39454;SDS011;25155;41.890;23.446;2024-01-30T12:30:54;4.00;;;2.47;;
39454;SDS011;25155;41.890;23.446;2024-01-30T12:33:24;4.20;;;2.55;;
39454;SDS011;25155;41.890;23.446;2024-01-30T12:35:53;5.13;;;3.10;;
39454;SDS011;25155;41.890;23.446;2024-01-30T12:38:22;4.32;;;2.40;;
39454;SDS011;25155;41.890;23.446;2024-01-30T12:40:49;6.53;;;4.20;;
39454;SDS011;25155;41.890;23.446;2024-01-30T12:43:16;5.43;;;3.33;;
39454;SDS011;25155;41.890;23.446;2024-01-30T12:45:44;4.40;;;2.53;;
39454;SDS011;25155;41.890;23.446;2024-01-30T12:48:11;5.32;;;3.08;;
39454;SDS011;25155;41.890;23.446;2024-01-30T12:50:38;4.78;;;2.70;;
39454;SDS011;25155;41.890;23.446;2024-01-30T12:53:05;4.05;;;2.50;;
39454;SDS011;25155;41.890;23.446;2024-01-30T12:55:34;5.13;;;2.88;;
39454;SDS011;25155;41.890;23.446;2024-01-30T12:58:01;4.10;;;2.30;;
39454;SDS011;25155;41.890;23.446;2024-01-30T13:00:28;5.45;;;3.20;;
39454;SDS011;25155;41.890;23.446;2024-01-30T13:02:55;4.68;;;2.75;;
39454;SDS011;25155;41.890;23.446;2024-01-30T13:05:23;7.22;;;4.22;;
39454;SDS011;25155;41.890;23.446;2024-01-30T13:07:50;6.22;;;3.75;;
39454;SDS011;25155;41.890;23.446;2024-01-30T13:10:18;6.57;;;3.00;;
39454;SDS011;25155;41.890;23.446;2024-01-30T13:12:47;4.57;;;2.42;;
39454;SDS011;25155;41.890;23.446;2024-01-30T13:15:14;4.65;;;2.28;;
39454;SDS011;25155;41.890;23.446;2024-01-30T13:17:42;4.40;;;2.60;;
39454;SDS011;25155;41.890;23.446;2024-01-30T13:20:12;4.25;;;2.67;;
39454;SDS011;25155;41.890;23.446;2024-01-30T13:22:42;5.07;;;3.03;;
39454;SDS011;25155;41.890;23.446;2024-01-30T13:25:10;4.57;;;2.72;;
39454;SDS011;25155;41.890;23.446;2024-01-30T13:27:37;4.10;;;2.50;;
39454;SDS011;25155;41.890;23.446;2024-01-30T13:30:07;5.00;;;3.22;;
39454;SDS011;25155;41.890;23.446;2024-01-30T13:32:35;4.13;;;2.53;;
39454;SDS011;25155;41.890;23.446;2024-01-30T13:35:03;3.75;;;2.22;;
39454;SDS011;25155;41.890;23.446;2024-01-30T13:37:30;4.43;;;2.60;;
39454;SDS011;25155;41.890;23.446;2024-01-30T13:39:58;3.65;;;2.40;;
39454;SDS011;25155;41.890;23.446;2024-01-30T13:42:25;3.35;;;2.20;;
39454;SDS011;25155;41.890;23.446;2024-01-30T13:44:52;4.38;;;2.55;;
39454;SDS011;25155;41.890;23.446;2024-01-30T13:47:21;5.75;;;3.40;;
39454;SDS011;25155;41.890;23.446;2024-01-30T13:49:48;5.55;;;3.05;;
39454;SDS011;25155;41.890;23.446;2024-01-30T13:52:15;5.85;;;3.22;;
39454;SDS011;25155;41.890;23.446;2024-01-30T13:54:42;4.53;;;2.72;;
39454;SDS011;25155;41.890;23.446;2024-01-30T13:57:10;5.07;;;2.75;;
39454;SDS011;25155;41.890;23.446;2024-01-30T13:59:37;6.00;;;3.72;;
39454;SDS011;25155;41.890;23.446;2024-01-30T14:02:05;4.22;;;2.53;;
39454;SDS011;25155;41.890;23.446;2024-01-30T14:04:35;5.03;;;3.05;;
39454;SDS011;25155;41.890;23.446;2024-01-30T14:07:02;7.60;;;4.57;;
39454;SDS011;25155;41.890;23.446;2024-01-30T14:09:29;6.32;;;3.63;;
39454;SDS011;25155;41.890;23.446;2024-01-30T14:11:57;7.90;;;5.28;;
39454;SDS011;25155;41.890;23.446;2024-01-30T14:14:25;5.15;;;3.22;;
39454;SDS011;25155;41.890;23.446;2024-01-30T14:16:52;4.40;;;2.60;;
39454;SDS011;25155;41.890;23.446;2024-01-30T14:19:19;3.35;;;2.15;;
39454;SDS011;25155;41.890;23.446;2024-01-30T14:21:48;5.60;;;2.97;;
39454;SDS011;25155;41.890;23.446;2024-01-30T14:24:15;9.68;;;5.28;;
39454;SDS011;25155;41.890;23.446;2024-01-30T14:26:42;6.75;;;4.10;;
39454;SDS011;25155;41.890;23.446;2024-01-30T14:29:09;6.90;;;4.10;;
39454;SDS011;25155;41.890;23.446;2024-01-30T14:31:36;8.10;;;4.82;;